Time;durP1;ratioP1;P1;durP2;ratioP2;P2;SDS_P1;SDS_P2;PMS_P1;PMS_P2;Temp;Humidity;BMP_temperature;BMP_pressure;BME280_temperature;BME280_humidity;BME280_pressure;Samples;Min_cycle;Max_cycle;Signal;HPM_P1;HPM_P2
2021/08/18 00:01:08;;;;;;;10.43;4.50;;;13.20;99.90;;;;;;4395130;32;20144;-71
2021/08/18 00:03:35;;;;;;;7.33;4.20;;;13.20;99.90;;;;;;4395621;32;20128;-71
2021/08/18 00:06:02;;;;;;;9.23;4.30;;;13.20;99.90;;;;;;4393271;32;20182;-71
2021/08/18 00:08:29;;;;;;;9.60;4.30;;;13.20;99.90;;;;;;4393914;32;20196;-70
2021/08/18 00:10:55;;;;;;;8.23;4.63;;;13.20;99.90;;;;;;4394983;32;20185;-71
2021/08/18 00:13:24;;;;;;;9.67;4.40;;;13.10;99.90;;;;;;4395302;32;20135;-70
2021/08/18 00:15:52;;;;;;;8.90;4.30;;;13.10;99.90;;;;;;4395346;32;20450;-70
2021/08/18 00:18:19;;;;;;;7.47;4.63;;;13.10;99.90;;;;;;4395456;32;20411;-69
2021/08/18 00:20:45;;;;;;;7.87;4.17;;;13.10;99.90;;;;;;4393837;32;20461;-70
2021/08/18 00:23:12;;;;;;;8.43;4.50;;;13.10;99.90;;;;;;4395495;32;20177;-70
2021/08/18 00:25:39;;;;;;;8.00;4.00;;;13.20;99.90;;;;;;4395444;32;20186;-71
2021/08/18 00:28:06;;;;;;;7.53;4.00;;;13.20;99.90;;;;;;4396558;32;20241;-71
2021/08/18 00:30:33;;;;;;;7.80;4.00;;;13.20;99.90;;;;;;4399246;32;20173;-70
2021/08/18 00:33:00;;;;;;;9.17;4.23;;;13.20;99.90;;;;;;4401812;32;20574;-72
2021/08/18 00:35:27;;;;;;;8.47;4.30;;;13.20;99.90;;;;;;4410890;32;20163;-71
2021/08/18 00:37:54;;;;;;;10.20;4.23;;;13.20;99.90;;;;;;4408992;32;20182;-71
2021/08/18 00:40:21;;;;;;;6.03;4.03;;;13.20;99.90;;;;;;4397124;32;20198;-71
2021/08/18 00:42:48;;;;;;;8.13;4.07;;;13.20;99.90;;;;;;4409556;32;20151;-71
2021/08/18 00:45:18;;;;;;;6.17;3.70;;;13.20;99.90;;;;;;4408888;32;20230;-71
2021/08/18 00:47:47;;;;;;;7.23;3.90;;;13.20;99.90;;;;;;4408876;32;20143;-71
2021/08/18 00:50:19;;;;;;;7.17;3.87;;;13.20;99.90;;;;;;4409539;32;20163;-71
2021/08/18 00:52:46;;;;;;;6.70;4.13;;;13.20;99.90;;;;;;4409286;32;20235;-71
2021/08/18 00:55:20;;;;;;;10.13;4.10;;;13.20;99.90;;;;;;4409648;32;20466;-70
2021/08/18 00:57:47;;;;;;;7.10;4.13;;;13.20;99.90;;;;;;4408698;32;20163;-70
2021/08/18 01:00:16;;;;;;;7.20;3.80;;;13.20;99.90;;;;;;4409361;32;20171;-70
2021/08/18 01:02:46;;;;;;;7.27;4.23;;;13.10;99.90;;;;;;4400239;32;20177;-70
2021/08/18 01:05:27;;;;;;;7.37;4.00;;;13.10;99.90;;;;;;4407754;32;20151;-70
2021/08/18 01:07:57;;;;;;;10.27;4.23;;;13.10;99.90;;;;;;4409268;32;20182;-72
2021/08/18 01:10:34;;;;;;;9.53;4.60;;;13.10;99.90;;;;;;4409477;32;20190;-72
2021/08/18 01:13:02;;;;;;;7.97;4.20;;;13.10;99.90;;;;;;4408834;32;20253;-72
2021/08/18 01:15:30;;;;;;;8.97;4.10;;;13.20;99.90;;;;;;4408680;32;20498;-72
2021/08/18 01:17:59;;;;;;;5.93;3.73;;;13.20;99.90;;;;;;4407938;32;20584;-70
2021/08/18 01:20:39;;;;;;;9.13;4.37;;;13.20;99.90;;;;;;4407203;32;20155;-69
2021/08/18 01:23:10;;;;;;;8.60;3.90;;;13.20;99.90;;;;;;4408543;32;20173;-70
2021/08/18 01:25:41;;;;;;;6.30;3.80;;;13.20;99.90;;;;;;4407260;32;20147;-70
2021/08/18 01:28:10;;;;;;;11.50;4.13;;;13.20;99.90;;;;;;4408227;32;20403;-70
2021/08/18 01:30:38;;;;;;;9.37;4.23;;;13.20;99.90;;;;;;4409152;32;20200;-69
2021/08/18 01:33:08;;;;;;;6.93;4.20;;;13.20;99.90;;;;;;4402706;32;20167;-70
2021/08/18 01:35:38;;;;;;;8.00;3.90;;;13.20;99.90;;;;;;4392299;32;20495;-70
2021/08/18 01:38:09;;;;;;;10.37;4.23;;;13.30;99.90;;;;;;4393475;32;20139;-70
2021/08/18 01:40:37;;;;;;;6.50;4.03;;;13.30;99.90;;;;;;4399145;32;20167;-70
2021/08/18 01:43:04;;;;;;;6.27;3.83;;;13.30;99.90;;;;;;4396396;32;20189;-71
2021/08/18 01:45:32;;;;;;;9.23;4.30;;;13.30;99.90;;;;;;4395649;32;20152;-71
2021/08/18 01:48:06;;;;;;;10.47;4.23;;;13.30;99.90;;;;;;4400755;32;20185;-71
2021/08/18 01:50:33;;;;;;;9.43;3.97;;;13.30;99.90;;;;;;4393669;32;20175;-71
2021/08/18 01:53:00;;;;;;;8.53;4.00;;;13.30;99.90;;;;;;4393861;32;20225;-71
2021/08/18 01:55:27;;;;;;;8.57;4.00;;;13.30;99.90;;;;;;4394382;32;20465;-71
2021/08/18 01:57:56;;;;;;;7.80;4.00;;;13.30;99.90;;;;;;4394264;32;20127;-71
2021/08/18 02:00:23;;;;;;;10.20;3.90;;;13.40;99.90;;;;;;4395566;32;20470;-71
2021/08/18 02:02:50;;;;;;;7.07;3.93;;;13.30;99.90;;;;;;4395789;32;20153;-71
2021/08/18 02:05:18;;;;;;;10.23;4.20;;;13.30;99.90;;;;;;4397503;32;20140;-71
2021/08/18 02:07:45;;;;;;;10.23;4.30;;;13.40;99.90;;;;;;4397600;32;20163;-71
2021/08/18 02:10:14;;;;;;;10.00;4.40;;;13.40;99.90;;;;;;4395777;32;20454;-71
2021/08/18 02:12:42;;;;;;;10.70;4.30;;;13.30;99.90;;;;;;4397254;32;20136;-71
2021/08/18 02:15:18;;;;;;;7.83;4.10;;;13.30;99.90;;;;;;4396094;32;20235;-71
2021/08/18 02:17:45;;;;;;;11.03;4.20;;;13.30;99.90;;;;;;4397482;32;20199;-71
2021/08/18 02:20:16;;;;;;;9.17;3.90;;;13.30;99.90;;;;;;4404245;32;20151;-70
2021/08/18 02:22:43;;;;;;;9.90;4.53;;;13.30;99.90;;;;;;4396206;32;20128;-71
2021/08/18 02:25:11;;;;;;;10.03;4.40;;;13.30;99.90;;;;;;4397048;32;20237;-71
2021/08/18 02:27:38;;;;;;;11.97;4.77;;;13.30;99.90;;;;;;4396819;32;20180;-71
2021/08/18 02:30:05;;;;;;;7.57;4.20;;;13.30;99.90;;;;;;4396670;32;20209;-71
2021/08/18 02:32:32;;;;;;;8.93;4.23;;;13.30;99.90;;;;;;4395705;32;20185;-71
2021/08/18 02:35:00;;;;;;;7.43;4.30;;;13.30;99.90;;;;;;4396095;32;20399;-69
2021/08/18 02:37:27;;;;;;;8.93;4.30;;;13.30;99.90;;;;;;4394997;32;20192;-68
2021/08/18 02:39:54;;;;;;;9.00;4.50;;;13.20;99.90;;;;;;4396684;32;20133;-68
2021/08/18 02:42:21;;;;;;;10.40;4.97;;;13.20;99.90;;;;;;4395288;32;20144;-70
2021/08/18 02:44:47;;;;;;;9.27;4.30;;;13.20;99.90;;;;;;4396702;32;20132;-70
2021/08/18 02:47:14;;;;;;;8.67;4.67;;;13.20;99.90;;;;;;4396036;32;20395;-70
2021/08/18 02:49:41;;;;;;;7.60;4.50;;;13.10;99.90;;;;;;4396600;32;20156;-70
2021/08/18 02:52:08;;;;;;;8.70;4.47;;;13.10;99.90;;;;;;4401828;32;20251;-71
2021/08/18 02:54:37;;;;;;;7.70;4.40;;;13.10;99.90;;;;;;4395347;32;20522;-71
2021/08/18 02:57:04;;;;;;;11.57;4.70;;;13.10;99.90;;;;;;4396459;32;20139;-71
2021/08/18 02:59:31;;;;;;;11.20;5.03;;;13.00;99.90;;;;;;4394615;32;20177;-71
2021/08/18 03:01:58;;;;;;;9.13;4.40;;;13.00;99.90;;;;;;4394989;32;20268;-71
2021/08/18 03:04:25;;;;;;;7.07;4.20;;;13.00;99.90;;;;;;4394725;32;20131;-71
2021/08/18 03:06:54;;;;;;;10.10;5.07;;;13.00;99.90;;;;;;4396498;32;20145;-71
2021/08/18 03:09:25;;;;;;;12.03;5.23;;;13.00;99.90;;;;;;4395932;32;20181;-71
2021/08/18 03:11:52;;;;;;;9.50;5.17;;;12.90;99.90;;;;;;4394473;32;20221;-70
2021/08/18 03:14:19;;;;;;;9.83;5.33;;;12.90;99.90;;;;;;4394502;32;20465;-71
2021/08/18 03:16:47;;;;;;;8.83;5.13;;;12.90;99.90;;;;;;4396400;32;20228;-71
2021/08/18 03:19:14;;;;;;;10.27;5.03;;;12.90;99.90;;;;;;4395937;32;20148;-72
2021/08/18 03:21:41;;;;;;;9.07;4.70;;;12.90;99.90;;;;;;4402648;32;20217;-72
2021/08/18 03:24:08;;;;;;;8.30;4.90;;;12.90;99.90;;;;;;4396500;32;20197;-72
2021/08/18 03:26:36;;;;;;;9.00;5.03;;;12.90;99.90;;;;;;4396040;32;20381;-72
2021/08/18 03:29:02;;;;;;;13.00;5.63;;;12.90;99.90;;;;;;4394553;32;20136;-72
2021/08/18 03:31:29;;;;;;;12.27;5.57;;;12.90;99.90;;;;;;4394949;32;20189;-72
2021/08/18 03:33:56;;;;;;;12.87;5.40;;;12.90;99.90;;;;;;4393704;32;20179;-71
2021/08/18 03:36:23;;;;;;;10.43;5.30;;;12.90;99.90;;;;;;4396232;32;20194;-72
2021/08/18 03:38:50;;;;;;;10.03;4.93;;;12.90;99.90;;;;;;4394022;32;20140;-72
2021/08/18 03:41:17;;;;;;;11.97;5.43;;;13.00;99.90;;;;;;4394063;32;20139;-71
2021/08/18 03:43:44;;;;;;;9.23;5.23;;;13.00;99.90;;;;;;4395632;32;20185;-72
2021/08/18 03:46:11;;;;;;;13.90;6.23;;;13.00;99.90;;;;;;4394319;32;20159;-72
2021/08/18 03:48:38;;;;;;;12.13;5.80;;;13.00;99.90;;;;;;4394370;32;20197;-72
2021/08/18 03:51:05;;;;;;;10.67;5.93;;;13.00;99.90;;;;;;4393587;32;20220;-73
2021/08/18 03:53:32;;;;;;;13.83;6.03;;;13.10;99.90;;;;;;4395318;32;20126;-72
2021/08/18 03:55:58;;;;;;;13.27;5.73;;;13.10;99.90;;;;;;4393993;32;20229;-72
2021/08/18 03:58:25;;;;;;;10.47;5.23;;;13.10;99.90;;;;;;4395679;32;20545;-72
2021/08/18 04:00:52;;;;;;;12.37;5.83;;;13.10;99.90;;;;;;4395305;32;20136;-72
2021/08/18 04:03:19;;;;;;;12.27;5.90;;;13.20;99.90;;;;;;4404115;32;20144;-71
2021/08/18 04:05:46;;;;;;;12.60;5.60;;;13.20;99.90;;;;;;4395518;32;20158;-71
2021/08/18 04:08:13;;;;;;;11.23;5.63;;;13.20;99.90;;;;;;4395355;32;20156;-71
2021/08/18 04:10:40;;;;;;;10.27;5.73;;;13.20;99.90;;;;;;4393878;32;20465;-71
2021/08/18 04:13:07;;;;;;;10.13;5.60;;;13.20;99.90;;;;;;4394313;32;20220;-71
2021/08/18 04:15:40;;;;;;;11.13;5.60;;;13.20;99.90;;;;;;4395499;32;20177;-71
2021/08/18 04:18:08;;;;;;;9.90;5.43;;;13.20;99.90;;;;;;4393292;32;20137;-72
2021/08/18 04:20:35;;;;;;;10.30;5.63;;;13.30;99.90;;;;;;4393962;32;20236;-73
2021/08/18 04:23:03;;;;;;;11.30;6.17;;;13.40;99.90;;;;;;4392897;32;20188;-72
2021/08/18 04:25:30;;;;;;;9.83;5.33;;;13.40;99.90;;;;;;4395452;32;20135;-71
2021/08/18 04:27:58;;;;;;;11.37;5.67;;;13.40;99.90;;;;;;4394740;32;20242;-72
2021/08/18 04:30:25;;;;;;;13.57;5.63;;;13.50;99.90;;;;;;4394765;32;20124;-71
2021/08/18 04:32:51;;;;;;;11.13;5.57;;;13.50;99.90;;;;;;4395608;32;20190;-72
2021/08/18 04:35:19;;;;;;;11.97;5.70;;;13.60;99.90;;;;;;4393870;32;20131;-73
2021/08/18 04:37:46;;;;;;;11.30;6.10;;;13.60;99.90;;;;;;4395376;32;20136;-71
2021/08/18 04:40:15;;;;;;;14.83;6.30;;;13.60;99.90;;;;;;4394680;32;20340;-72
2021/08/18 04:42:44;;;;;;;11.60;5.50;;;13.60;99.90;;;;;;4396371;32;20482;-71
2021/08/18 04:45:13;;;;;;;12.03;5.87;;;13.70;99.90;;;;;;4400191;32;20183;-72
2021/08/18 04:47:40;;;;;;;14.20;5.70;;;13.70;99.90;;;;;;4393084;32;20128;-72
2021/08/18 04:50:10;;;;;;;11.53;6.07;;;13.80;99.90;;;;;;4394128;32;20192;-72
2021/08/18 04:52:37;;;;;;;11.60;5.53;;;13.80;99.90;;;;;;4393290;32;20427;-72
2021/08/18 04:55:04;;;;;;;12.00;5.33;;;13.90;99.90;;;;;;4394942;32;20189;-72
2021/08/18 04:57:31;;;;;;;13.20;5.80;;;13.90;99.90;;;;;;4393240;32;20488;-71
2021/08/18 04:59:58;;;;;;;12.07;5.90;;;13.90;99.90;;;;;;4393460;32;20405;-72
2021/08/18 05:02:25;;;;;;;12.30;6.00;;;14.00;99.90;;;;;;4393455;32;20199;-72
2021/08/18 05:04:53;;;;;;;14.73;5.97;;;14.00;99.90;;;;;;4393445;32;20135;-72
2021/08/18 05:07:19;;;;;;;13.03;6.20;;;14.00;99.90;;;;;;4395226;32;20213;-72
2021/08/18 05:09:46;;;;;;;11.23;6.00;;;14.10;99.90;;;;;;4394438;32;20225;-71
2021/08/18 05:12:13;;;;;;;12.40;5.63;;;14.20;99.90;;;;;;4394279;32;20140;-73
2021/08/18 05:14:40;;;;;;;13.10;6.00;;;14.30;99.90;;;;;;4401340;32;20197;-71
2021/08/18 05:17:06;;;;;;;13.77;6.40;;;14.50;99.90;;;;;;4393699;32;20148;-72
2021/08/18 05:19:33;;;;;;;14.83;5.87;;;14.70;99.90;;;;;;4394593;32;20423;-73
2021/08/18 05:22:00;;;;;;;12.37;5.80;;;14.70;99.90;;;;;;4392797;32;20232;-72
2021/08/18 05:24:27;;;;;;;9.77;5.60;;;14.80;99.90;;;;;;4393304;32;20140;-72
2021/08/18 05:26:54;;;;;;;11.43;6.03;;;14.90;99.90;;;;;;4394997;32;20188;-72
2021/08/18 05:29:21;;;;;;;13.10;6.50;;;14.90;99.90;;;;;;4393836;32;20367;-73
2021/08/18 05:31:47;;;;;;;14.03;6.17;;;15.00;99.90;;;;;;4393215;32;20209;-73
2021/08/18 05:34:14;;;;;;;11.50;6.10;;;15.00;99.90;;;;;;4393441;32;20461;-72
2021/08/18 05:36:41;;;;;;;11.33;6.07;;;15.00;99.90;;;;;;4394910;32;20197;-72
2021/08/18 05:39:08;;;;;;;12.90;6.73;;;15.00;99.90;;;;;;4392920;32;20167;-72
2021/08/18 05:41:34;;;;;;;14.00;6.17;;;15.00;99.90;;;;;;4394487;32;20143;-72
2021/08/18 05:44:01;;;;;;;13.10;6.23;;;15.00;99.90;;;;;;4394237;32;20139;-72
2021/08/18 05:46:28;;;;;;;11.90;6.07;;;15.00;99.90;;;;;;4394454;32;20159;-73
2021/08/18 05:48:55;;;;;;;11.27;5.83;;;15.10;99.90;;;;;;4395387;32;20159;-73
2021/08/18 05:51:22;;;;;;;10.53;5.93;;;15.00;99.90;;;;;;4399690;32;20215;-73
2021/08/18 05:53:50;;;;;;;14.70;6.97;;;15.20;99.90;;;;;;4393860;32;20185;-72
2021/08/18 05:56:18;;;;;;;14.40;6.80;;;15.20;99.90;;;;;;4393085;32;20195;-71
2021/08/18 05:58:45;;;;;;;16.47;7.03;;;15.10;99.90;;;;;;4393609;32;20345;-73
2021/08/18 06:01:12;;;;;;;14.13;6.50;;;15.20;99.90;;;;;;4393784;32;20195;-74
2021/08/18 06:03:39;;;;;;;12.63;6.57;;;15.10;99.90;;;;;;4392713;32;20158;-73
2021/08/18 06:06:06;;;;;;;15.27;7.40;;;15.20;99.90;;;;;;4394938;32;20136;-74
2021/08/18 06:08:32;;;;;;;16.07;6.80;;;15.10;99.90;;;;;;4406569;32;20201;-73
2021/08/18 06:10:59;;;;;;;14.80;6.50;;;15.10;99.90;;;;;;4409327;32;20148;-74
2021/08/18 06:13:26;;;;;;;14.20;6.13;;;15.10;99.90;;;;;;4407438;32;20251;-74
2021/08/18 06:15:53;;;;;;;13.97;6.30;;;15.20;99.90;;;;;;4407795;32;20437;-72
2021/08/18 06:18:20;;;;;;;16.87;6.37;;;15.20;99.90;;;;;;4400274;32;20155;-72
2021/08/18 06:20:46;;;;;;;13.90;6.67;;;15.20;99.90;;;;;;4401510;32;20267;-71
2021/08/18 06:23:17;;;;;;;13.37;6.60;;;15.20;99.90;;;;;;4405974;32;20204;-73
2021/08/18 06:25:44;;;;;;;15.27;6.40;;;15.20;99.90;;;;;;4393703;32;20202;-73
2021/08/18 06:28:14;;;;;;;16.53;7.10;;;15.20;99.90;;;;;;4393373;32;20221;-72
2021/08/18 06:30:41;;;;;;;12.67;6.53;;;15.40;99.90;;;;;;4392634;32;20147;-71
2021/08/18 06:33:08;;;;;;;11.33;6.37;;;15.50;99.90;;;;;;4408198;32;20573;-72
2021/08/18 06:35:35;;;;;;;11.87;6.30;;;15.60;99.90;;;;;;4408728;32;20201;-72
2021/08/18 06:38:02;;;;;;;13.97;7.03;;;15.80;99.90;;;;;;4411934;32;20284;-73
2021/08/18 06:40:28;;;;;;;15.80;6.73;;;15.90;99.90;;;;;;4404631;32;20464;-73
2021/08/18 06:42:56;;;;;;;14.47;6.83;;;16.00;99.90;;;;;;4393846;32;20147;-72
2021/08/18 06:45:23;;;;;;;15.17;7.30;;;15.90;99.90;;;;;;4393434;32;20140;-71
2021/08/18 06:47:50;;;;;;;12.40;6.87;;;15.90;99.90;;;;;;4396859;32;20238;-72
2021/08/18 06:50:16;;;;;;;14.70;6.90;;;15.90;99.90;;;;;;4396271;32;20538;-72
2021/08/18 06:52:43;;;;;;;13.63;7.47;;;15.80;99.90;;;;;;4417400;32;20200;-73
2021/08/18 06:55:11;;;;;;;15.93;7.23;;;15.90;99.90;;;;;;4407570;32;20159;-74
2021/08/18 06:57:37;;;;;;;14.77;6.97;;;15.90;99.90;;;;;;4417257;32;20150;-72
2021/08/18 07:00:06;;;;;;;14.10;7.33;;;16.00;99.90;;;;;;4417678;32;20453;-73
2021/08/18 07:02:33;;;;;;;14.50;7.10;;;15.90;99.90;;;;;;4410445;32;20169;-73
2021/08/18 07:05:06;;;;;;;14.17;6.70;;;15.90;99.90;;;;;;4411985;32;20159;-72
2021/08/18 07:07:33;;;;;;;14.43;7.57;;;15.80;99.90;;;;;;4419890;32;20151;-72
2021/08/18 07:10:00;;;;;;;14.00;6.83;;;15.80;99.90;;;;;;4397995;32;20211;-72
2021/08/18 07:12:26;;;;;;;13.13;6.80;;;15.90;99.90;;;;;;4394621;32;20181;-72
2021/08/18 07:14:53;;;;;;;13.13;7.33;;;16.00;99.90;;;;;;4395984;32;20132;-73
2021/08/18 07:17:20;;;;;;;15.43;7.07;;;16.10;99.90;;;;;;4396452;32;20135;-73
2021/08/18 07:19:47;;;;;;;14.37;7.23;;;16.20;99.90;;;;;;4394640;32;20166;-72
2021/08/18 07:22:13;;;;;;;15.40;7.17;;;16.30;99.90;;;;;;4395478;32;20181;-72
2021/08/18 07:24:40;;;;;;;12.67;7.07;;;16.50;99.90;;;;;;4396369;32;20502;-73
2021/08/18 07:27:07;;;;;;;12.80;6.40;;;16.70;99.90;;;;;;4396084;32;20158;-74
2021/08/18 07:29:34;;;;;;;12.33;6.70;;;16.70;99.90;;;;;;4395267;32;20158;-74
2021/08/18 07:32:00;;;;;;;13.37;6.60;;;16.80;99.90;;;;;;4396355;32;20143;-74
2021/08/18 07:34:27;;;;;;;12.93;6.37;;;16.70;99.90;;;;;;4395320;32;20162;-74
2021/08/18 07:36:54;;;;;;;14.30;7.07;;;16.70;99.90;;;;;;4395439;32;20194;-74
2021/08/18 07:39:21;;;;;;;13.37;6.27;;;16.80;99.90;;;;;;4394590;32;20143;-75
2021/08/18 07:41:48;;;;;;;13.00;6.67;;;17.00;99.90;;;;;;4395758;32;20189;-75
2021/08/18 07:44:14;;;;;;;16.00;6.47;;;17.10;99.90;;;;;;4396038;32;20161;-72
2021/08/18 07:46:41;;;;;;;12.67;6.70;;;17.30;99.90;;;;;;4394911;32;20206;-73
2021/08/18 07:49:08;;;;;;;10.63;5.60;;;17.40;99.90;;;;;;4396250;32;20181;-73
2021/08/18 07:51:34;;;;;;;9.90;5.13;;;17.40;99.90;;;;;;4394234;32;20167;-74
2021/08/18 07:54:01;;;;;;;12.10;5.40;;;17.40;99.90;;;;;;4396006;32;20144;-73
2021/08/18 07:56:31;;;;;;;14.70;5.80;;;17.40;99.90;;;;;;4395898;32;20239;-74
2021/08/18 07:59:00;;;;;;;12.40;5.90;;;17.40;99.90;;;;;;4393996;32;20194;-74
2021/08/18 08:01:34;;;;;;;12.40;5.50;;;17.50;99.90;;;;;;4394373;32;20142;-74
2021/08/18 08:04:02;;;;;;;11.43;5.17;;;17.40;99.90;;;;;;4394666;32;20140;-76
2021/08/18 08:06:29;;;;;;;10.00;5.37;;;17.30;99.90;;;;;;4394644;32;20133;-75
2021/08/18 08:08:55;;;;;;;11.37;5.50;;;17.30;99.90;;;;;;4394452;32;20194;-74
2021/08/18 08:11:22;;;;;;;11.63;5.73;;;17.60;99.90;;;;;;4393979;32;20551;-74
2021/08/18 08:13:49;;;;;;;9.53;5.17;;;18.10;99.90;;;;;;4395045;32;20136;-74
2021/08/18 08:16:16;;;;;;;10.63;5.40;;;18.30;99.90;;;;;;4395029;32;20398;-74
2021/08/18 08:18:43;;;;;;;12.67;5.70;;;18.90;99.90;;;;;;4394661;32;20136;-75
2021/08/18 08:21:09;;;;;;;11.17;5.20;;;19.40;99.90;;;;;;4394138;32;20198;-74
2021/08/18 08:23:36;;;;;;;9.90;5.17;;;19.40;99.90;;;;;;4395239;32;20147;-74
2021/08/18 08:26:03;;;;;;;11.83;5.27;;;19.10;99.90;;;;;;4393878;32;20131;-76
2021/08/18 08:28:30;;;;;;;11.40;5.57;;;19.00;99.90;;;;;;4395432;32;20171;-75
2021/08/18 08:30:56;;;;;;;10.33;5.43;;;18.80;99.90;;;;;;4395398;32;20127;-73
2021/08/18 08:33:23;;;;;;;10.50;5.53;;;18.60;99.90;;;;;;4393431;32;20159;-72
2021/08/18 08:35:50;;;;;;;8.57;5.10;;;18.50;99.90;;;;;;4393720;32;20217;-73
2021/08/18 08:38:17;;;;;;;13.93;5.80;;;18.30;99.90;;;;;;4393941;32;20494;-73
2021/08/18 08:40:45;;;;;;;9.97;5.43;;;18.20;99.90;;;;;;4400440;32;20514;-74
2021/08/18 08:43:16;;;;;;;12.30;5.13;;;18.60;99.90;;;;;;4395050;32;20155;-70
2021/08/18 08:45:46;;;;;;;9.77;5.07;;;18.80;99.90;;;;;;4393922;32;20131;-72
2021/08/18 08:48:15;;;;;;;10.27;5.23;;;19.40;99.90;;;;;;4395467;32;20183;-73
2021/08/18 08:50:44;;;;;;;10.20;5.33;;;19.20;99.90;;;;;;4394389;32;20216;-74
2021/08/18 08:53:11;;;;;;;8.93;4.70;;;19.50;99.90;;;;;;4392665;32;20128;-74
2021/08/18 08:55:40;;;;;;;8.97;5.00;;;19.70;99.90;;;;;;4392924;32;20185;-73
2021/08/18 08:58:07;;;;;;;8.87;5.07;;;20.00;99.90;;;;;;4394550;32;20204;-75
2021/08/18 09:00:34;;;;;;;10.53;5.00;;;20.30;99.90;;;;;;4393203;32;20550;-75
2021/08/18 09:03:07;;;;;;;10.30;5.40;;;20.60;99.90;;;;;;4394113;32;20140;-75
2021/08/18 09:05:36;;;;;;;10.50;5.33;;;20.70;99.90;;;;;;4394802;32;20139;-74
2021/08/18 09:08:03;;;;;;;10.60;5.17;;;20.60;99.90;;;;;;4393062;32;20200;-74
2021/08/18 09:10:30;;;;;;;9.93;5.50;;;20.00;99.90;;;;;;4391629;32;20555;-73
2021/08/18 09:13:10;;;;;;;10.17;5.20;;;19.60;99.90;;;;;;4402378;32;20473;-75
2021/08/18 09:15:37;;;;;;;10.07;5.10;;;19.00;99.90;;;;;;4392631;32;20477;-73
2021/08/18 09:18:04;;;;;;;11.37;5.50;;;19.30;99.90;;;;;;4394233;32;20458;-72
2021/08/18 09:20:32;;;;;;;10.80;5.33;;;19.60;99.90;;;;;;4394161;32;20455;-72
2021/08/18 09:23:02;;;;;;;10.23;5.20;;;19.60;99.90;;;;;;4393485;32;20155;-72
2021/08/18 09:25:39;;;;;;;11.33;5.40;;;19.80;99.90;;;;;;4393809;32;20159;-75
2021/08/18 09:28:06;;;;;;;9.93;4.80;;;20.60;99.90;;;;;;4394081;32;20173;-74
2021/08/18 09:30:35;;;;;;;9.17;5.20;;;20.80;99.90;;;;;;4393336;32;20389;-74
2021/08/18 09:33:16;;;;;;;10.30;4.93;;;20.80;99.90;;;;;;4394438;32;20154;-72
2021/08/18 09:35:56;;;;;;;9.83;4.77;;;20.60;99.90;;;;;;4393806;32;20182;-71
2021/08/18 09:38:26;;;;;;;8.43;4.50;;;20.80;99.90;;;;;;4392589;32;20195;-71
2021/08/18 09:40:55;;;;;;;10.73;5.00;;;20.80;99.90;;;;;;4394078;32;20466;-72
2021/08/18 09:43:25;;;;;;;9.83;4.93;;;21.40;99.90;;;;;;4395826;32;20524;-73
2021/08/18 09:46:01;;;;;;;10.53;5.47;;;21.70;99.90;;;;;;4401376;32;20408;-74
2021/08/18 09:48:37;;;;;;;12.33;5.60;;;21.70;99.90;;;;;;4393553;32;20136;-74
2021/08/18 09:51:12;;;;;;;8.70;5.43;;;21.60;99.90;;;;;;4393634;32;20163;-75
2021/08/18 09:53:40;;;;;;;11.03;5.37;;;22.40;99.90;;;;;;4392736;32;20131;-73
2021/08/18 09:56:12;;;;;;;10.43;4.90;;;22.60;99.90;;;;;;4392673;32;20136;-74
2021/08/18 09:58:50;;;;;;;11.63;5.73;;;22.80;99.90;;;;;;4394471;32;20127;-73
2021/08/18 10:01:18;;;;;;;9.07;4.90;;;22.90;99.90;;;;;;4393467;32;20143;-72
2021/08/18 10:03:48;;;;;;;9.63;5.43;;;22.40;99.90;;;;;;4394675;32;20136;-72
2021/08/18 10:06:16;;;;;;;10.20;5.20;;;22.10;99.90;;;;;;4392496;32;20174;-73
2021/08/18 10:08:45;;;;;;;10.77;5.80;;;22.20;99.90;;;;;;4394141;32;20408;-73
2021/08/18 10:11:14;;;;;;;10.37;4.97;;;22.30;99.90;;;;;;4393536;32;20159;-75
2021/08/18 10:13:42;;;;;;;8.63;5.43;;;23.10;99.90;;;;;;4392119;32;20165;-73
2021/08/18 10:16:09;;;;;;;11.37;5.50;;;23.30;99.90;;;;;;4402586;32;20473;-74
2021/08/18 10:18:45;;;;;;;10.57;5.47;;;23.30;99.90;;;;;;4393372;32;20217;-73
2021/08/18 10:21:24;;;;;;;9.17;5.10;;;22.70;99.90;;;;;;4394240;32;20177;-73
2021/08/18 10:23:58;;;;;;;9.83;4.70;;;22.60;99.90;;;;;;4397017;32;20197;-72
2021/08/18 10:26:33;;;;;;;10.43;5.27;;;23.10;99.90;;;;;;4397209;32;20212;-73
2021/08/18 10:29:06;;;;;;;9.30;4.60;;;22.60;99.90;;;;;;4396325;32;20194;-74
2021/08/18 10:31:45;;;;;;;14.03;6.03;;;22.50;99.90;;;;;;4397359;32;20231;-74
2021/08/18 10:34:22;;;;;;;10.03;5.10;;;22.20;99.90;;;;;;4395987;32;20483;-73
2021/08/18 10:36:52;;;;;;;9.93;5.67;;;22.00;99.90;;;;;;4395320;32;20457;-73
2021/08/18 10:39:18;;;;;;;9.53;5.10;;;21.90;99.90;;;;;;4396776;32;20135;-73
2021/08/18 10:42:03;;;;;;;9.13;4.70;;;21.60;99.90;;;;;;4396951;32;20177;-73
2021/08/18 10:44:34;;;;;;;9.33;4.80;;;21.00;99.90;;;;;;4395938;32;20164;-73
2021/08/18 10:47:24;;;;;;;6.87;4.30;;;20.80;99.90;;;;;;4395346;32;20182;-73
2021/08/18 10:50:13;;;;;;;9.27;4.97;;;20.40;99.90;;;;;;4396975;32;20431;-74
2021/08/18 10:52:42;;;;;;;8.00;4.80;;;20.30;99.90;;;;;;4407970;32;20142;-75
2021/08/18 10:55:09;;;;;;;9.17;4.40;;;20.30;99.90;;;;;;4410672;32;20154;-75
2021/08/18 10:57:48;;;;;;;8.57;4.50;;;20.30;99.90;;;;;;4410213;32;20151;-73
2021/08/18 11:00:32;;;;;;;8.83;4.47;;;20.30;99.90;;;;;;4410084;32;20191;-74
2021/08/18 11:03:16;;;;;;;11.23;5.00;;;19.80;99.90;;;;;;4410321;32;20151;-76
2021/08/18 11:05:49;;;;;;;9.20;4.60;;;19.60;99.90;;;;;;4411469;32;20380;-76
2021/08/18 11:08:19;;;;;;;9.03;4.80;;;19.60;99.90;;;;;;4411344;32;20190;-74
2021/08/18 11:10:55;;;;;;;9.57;4.40;;;19.60;99.90;;;;;;4412055;32;20132;-74
2021/08/18 11:13:45;;;;;;;8.97;4.90;;;19.70;99.90;;;;;;4411693;32;20155;-72
2021/08/18 11:16:16;;;;;;;7.77;4.80;;;19.70;99.90;;;;;;4411745;32;20441;-74
2021/08/18 11:18:50;;;;;;;9.47;4.37;;;19.80;99.90;;;;;;4410274;32;20178;-74
2021/08/18 11:21:20;;;;;;;9.70;4.80;;;19.70;99.90;;;;;;4404196;32;20155;-74
2021/08/18 11:24:11;;;;;;;7.40;4.20;;;19.80;99.90;;;;;;4394720;32;20166;-73
2021/08/18 11:26:43;;;;;;;10.73;4.97;;;19.80;99.90;;;;;;4396571;32;20507;-74
2021/08/18 11:29:12;;;;;;;10.97;4.50;;;19.80;99.90;;;;;;4395735;32;20416;-73
2021/08/18 11:31:42;;;;;;;7.10;4.30;;;19.90;99.90;;;;;;4394032;32;20469;-74
2021/08/18 11:34:26;;;;;;;6.97;3.77;;;20.20;99.90;;;;;;4395865;32;20348;-73
2021/08/18 11:37:19;;;;;;;9.50;4.50;;;20.60;99.90;;;;;;4394721;32;20128;-72
2021/08/18 11:39:55;;;;;;;8.43;4.43;;;21.00;99.90;;;;;;4393381;32;20167;-73
2021/08/18 11:42:23;;;;;;;9.97;4.60;;;21.60;99.90;;;;;;4393659;32;20202;-74
2021/08/18 11:45:15;;;;;;;8.83;4.50;;;21.10;99.90;;;;;;4396187;32;20139;-74
2021/08/18 11:47:43;;;;;;;7.77;4.40;;;20.60;99.90;;;;;;4395378;32;20148;-74
2021/08/18 11:50:14;;;;;;;8.67;4.10;;;20.40;99.90;;;;;;4395313;32;20175;-74
2021/08/18 11:52:41;;;;;;;8.40;4.60;;;19.90;99.90;;;;;;4395136;32;20248;-74
2021/08/18 11:55:08;;;;;;;8.60;4.60;;;19.90;99.90;;;;;;4394329;32;20132;-74
2021/08/18 11:57:35;;;;;;;9.40;4.50;;;19.70;99.90;;;;;;4394088;32;20187;-75
2021/08/18 12:00:05;;;;;;;8.03;4.50;;;19.80;99.90;;;;;;4396010;32;20154;-75
2021/08/18 12:02:33;;;;;;;8.00;4.33;;;19.90;99.90;;;;;;4403379;32;20175;-73
2021/08/18 12:05:03;;;;;;;8.27;4.73;;;19.90;99.90;;;;;;4396584;32;20173;-74
2021/08/18 12:07:32;;;;;;;8.30;4.43;;;19.80;99.90;;;;;;4394670;32;20195;-74
2021/08/18 12:10:18;;;;;;;7.97;4.33;;;19.80;99.90;;;;;;4394455;32;20136;-74
2021/08/18 12:12:46;;;;;;;8.13;4.27;;;19.70;99.90;;;;;;4394612;32;20144;-78
2021/08/18 12:15:16;;;;;;;10.60;4.67;;;19.90;99.90;;;;;;4394150;32;20132;-79
2021/08/18 12:17:44;;;;;;;10.10;4.80;;;20.10;99.90;;;;;;4394311;32;20140;-79
2021/08/18 12:20:30;;;;;;;9.20;4.30;;;19.90;99.90;;;;;;4394734;32;20202;-85
2021/08/18 12:22:58;;;;;;;8.67;4.30;;;19.60;99.90;;;;;;4394245;32;20503;-85
2021/08/18 12:25:35;;;;;;;8.93;4.20;;;19.50;99.90;;;;;;4395202;32;20421;-82
2021/08/18 12:28:16;;;;;;;7.70;4.00;;;19.30;99.90;;;;;;4395102;32;20173;-84
2021/08/18 12:30:59;;;;;;;7.27;4.20;;;19.40;99.90;;;;;;4394964;32;20140;-84
2021/08/18 12:33:27;;;;;;;9.30;4.57;;;19.50;99.90;;;;;;4395479;32;20131;-82
2021/08/18 12:36:11;;;;;;;7.70;4.30;;;19.50;99.90;;;;;;4393305;32;20169;-83
2021/08/18 12:38:51;;;;;;;6.60;4.30;;;19.60;99.90;;;;;;4398203;32;20155;-84
2021/08/18 12:41:18;;;;;;;9.10;4.30;;;19.60;99.90;;;;;;4398129;32;20143;-81
2021/08/18 12:43:46;;;;;;;7.53;4.23;;;19.60;99.90;;;;;;4392949;32;20143;-79
2021/08/18 12:46:23;;;;;;;8.80;4.43;;;19.70;99.90;;;;;;4398037;32;20178;-80
2021/08/18 12:48:49;;;;;;;6.93;3.83;;;20.60;99.90;;;;;;4409450;32;20245;-80
2021/08/18 12:51:16;;;;;;;8.00;3.60;;;21.60;99.90;;;;;;4412061;32;20171;-81